createdAt,value
2023-04-16T00:00:42.573Z,5.97
2023-04-16T00:03:09.299Z,6.10
2023-04-16T00:05:35.984Z,7.00
2023-04-16T00:08:03.152Z,5.80
2023-04-16T00:10:29.600Z,5.17
2023-04-16T00:12:56.062Z,9.23
2023-04-16T00:15:22.665Z,5.30
2023-04-16T00:17:49.264Z,5.53
2023-04-16T00:20:15.815Z,8.00
2023-04-16T00:22:42.303Z,8.03
2023-04-16T00:25:09.113Z,6.10
2023-04-16T00:27:35.776Z,9.73
2023-04-16T00:30:03.545Z,6.35
2023-04-16T00:32:30.697Z,9.05
2023-04-16T00:34:57.236Z,8.57
2023-04-16T00:37:23.771Z,6.10
2023-04-16T00:39:50.695Z,7.38
2023-04-16T00:42:17.230Z,6.13
2023-04-16T00:44:43.730Z,5.72
2023-04-16T00:47:10.666Z,5.87
2023-04-16T00:49:37.552Z,8.13
2023-04-16T00:52:04.343Z,7.55
2023-04-16T00:54:31.894Z,5.60
2023-04-16T00:56:59.518Z,7.70
2023-04-16T00:59:27.021Z,5.37
2023-04-16T01:01:53.600Z,6.18
2023-04-16T01:04:20.317Z,6.45
2023-04-16T01:06:46.957Z,6.03
2023-04-16T01:09:13.400Z,5.97
2023-04-16T01:11:39.959Z,5.90
2023-04-16T01:14:06.544Z,6.97
2023-04-16T01:16:33.087Z,6.75
2023-04-16T01:18:59.581Z,6.53
2023-04-16T01:21:26.549Z,7.57
2023-04-16T01:23:52.992Z,6.57
2023-04-16T01:26:19.455Z,7.82
2023-04-16T01:28:46.293Z,8.90
2023-04-16T01:31:12.806Z,6.47
2023-04-16T01:33:39.266Z,7.10
2023-04-16T01:36:06.041Z,8.07
2023-04-16T01:38:32.522Z,8.43
2023-04-16T01:40:59.598Z,7.10
2023-04-16T01:43:26.169Z,6.18
2023-04-16T01:45:59.593Z,6.78
2023-04-16T01:48:26.091Z,8.33
2023-04-16T01:50:52.561Z,7.07
2023-04-16T01:53:19.041Z,7.05
2023-04-16T01:55:45.591Z,6.75
2023-04-16T01:58:14.752Z,9.15
2023-04-16T02:00:41.349Z,11.27
2023-04-16T02:03:07.986Z,6.88
2023-04-16T02:05:34.684Z,8.73
2023-04-16T02:08:01.245Z,13.68
2023-04-16T02:10:27.674Z,9.93
2023-04-16T02:12:54.134Z,10.73
2023-04-16T02:15:20.563Z,7.18
2023-04-16T02:17:48.638Z,10.93
2023-04-16T02:20:15.919Z,10.60
2023-04-16T02:22:43.428Z,8.63
2023-04-16T02:25:09.943Z,7.93
2023-04-16T02:27:36.708Z,11.85
2023-04-16T02:30:04.344Z,11.50
2023-04-16T02:32:30.906Z,8.95
2023-04-16T02:34:57.389Z,9.50
2023-04-16T02:37:24.679Z,14.03
2023-04-16T02:39:51.441Z,14.63
2023-04-16T02:42:17.876Z,17.15
2023-04-16T02:44:44.346Z,14.23
2023-04-16T02:47:10.817Z,12.50
2023-04-16T02:49:37.253Z,10.63
2023-04-16T02:52:03.739Z,15.27
2023-04-16T02:54:30.282Z,12.18
2023-04-16T02:56:56.879Z,9.32
2023-04-16T02:59:23.345Z,18.70
2023-04-16T03:01:50.013Z,11.37
2023-04-16T03:04:16.675Z,12.68
2023-04-16T03:06:43.158Z,13.95
2023-04-16T03:09:09.795Z,15.00
2023-04-16T03:11:36.386Z,11.18
2023-04-16T03:14:02.826Z,13.70
2023-04-16T03:16:29.262Z,17.40
2023-04-16T03:18:55.688Z,12.93
2023-04-16T03:21:22.140Z,13.70
2023-04-16T03:23:48.916Z,14.10
2023-04-16T03:26:15.494Z,15.87
2023-04-16T03:28:41.930Z,18.15
2023-04-16T03:31:08.469Z,15.05
2023-04-16T03:33:34.886Z,21.63
2023-04-16T03:36:01.421Z,22.98
2023-04-16T03:38:27.920Z,16.67
2023-04-16T03:40:54.348Z,18.27
2023-04-16T03:43:21.043Z,18.40
2023-04-16T03:45:47.770Z,14.18
2023-04-16T03:48:14.257Z,20.02
2023-04-16T03:50:40.987Z,18.77
2023-04-16T03:53:07.521Z,17.00
2023-04-16T03:55:35.145Z,13.57
2023-04-16T03:58:03.314Z,16.55
2023-04-16T04:00:30.475Z,11.70
2023-04-16T04:02:57.264Z,15.17
2023-04-16T04:05:23.914Z,11.98
2023-04-16T04:07:50.622Z,13.50
2023-04-16T04:10:17.060Z,19.33
2023-04-16T04:12:44.073Z,17.92
2023-04-16T04:15:11.623Z,17.13
2023-04-16T04:17:38.214Z,16.33
2023-04-16T04:20:05.320Z,17.92
2023-04-16T04:22:31.820Z,16.38
2023-04-16T04:24:58.312Z,17.63
2023-04-16T04:27:24.828Z,15.80
2023-04-16T04:29:51.314Z,16.95
2023-04-16T04:32:17.730Z,16.00
2023-04-16T04:34:44.178Z,17.38
2023-04-16T04:37:10.607Z,20.00
2023-04-16T04:39:37.065Z,19.27
2023-04-16T04:42:03.825Z,19.83
2023-04-16T04:44:30.342Z,18.23
2023-04-16T04:46:56.770Z,20.45
2023-04-16T04:49:23.201Z,22.02
2023-04-16T04:51:49.804Z,20.00
2023-04-16T04:54:16.651Z,18.30
2023-04-16T04:56:45.835Z,14.93
2023-04-16T04:59:12.696Z,18.92
2023-04-16T05:01:39.384Z,16.75
2023-04-16T05:04:06.348Z,19.67
2023-04-16T05:06:32.952Z,16.67
2023-04-16T05:08:59.416Z,18.85
2023-04-16T05:11:25.884Z,15.38
2023-04-16T05:13:52.377Z,17.55
2023-04-16T05:16:18.865Z,16.10
2023-04-16T05:18:45.498Z,15.90
2023-04-16T05:21:12.031Z,19.08
2023-04-16T05:23:38.542Z,20.45
2023-04-16T05:26:05.181Z,24.02
2023-04-16T05:28:31.738Z,21.50
2023-04-16T05:30:58.328Z,18.10
2023-04-16T05:33:24.779Z,19.80
2023-04-16T05:35:51.327Z,17.75
2023-04-16T05:38:17.815Z,18.25
2023-04-16T05:40:44.319Z,20.10
2023-04-16T05:43:10.985Z,21.95
2023-04-16T05:45:41.228Z,30.38
2023-04-16T05:48:12.365Z,25.00
2023-04-16T05:50:38.861Z,18.02
2023-04-16T05:53:09.117Z,18.53
2023-04-16T05:55:36.911Z,19.75
2023-04-16T05:58:06.325Z,23.35
2023-04-16T06:00:33.174Z,22.23
2023-04-16T06:02:59.963Z,18.45
2023-04-16T06:05:27.100Z,25.00
2023-04-16T06:07:53.730Z,23.50
2023-04-16T06:10:20.380Z,22.85
2023-04-16T06:12:46.802Z,22.13
2023-04-16T06:15:13.306Z,14.60
2023-04-16T06:17:40.091Z,22.57
2023-04-16T06:20:07.171Z,23.08
2023-04-16T06:22:33.664Z,24.80
2023-04-16T06:25:00.151Z,21.65
2023-04-16T06:27:27.135Z,18.92
2023-04-16T06:29:53.566Z,16.40
2023-04-16T06:32:20.392Z,22.27
2023-04-16T06:34:46.935Z,23.52
2023-04-16T06:37:13.357Z,21.25
2023-04-16T06:39:39.785Z,20.92
2023-04-16T06:42:06.283Z,22.00
2023-04-16T06:44:32.812Z,19.20
2023-04-16T06:46:59.267Z,23.38
2023-04-16T06:49:25.747Z,19.83
2023-04-16T06:51:52.220Z,22.50
2023-04-16T06:54:19.737Z,24.73
2023-04-16T06:56:46.203Z,25.15
2023-04-16T06:59:12.720Z,19.58
2023-04-16T07:01:39.239Z,21.70
2023-04-16T07:04:05.961Z,24.52
2023-04-16T07:06:32.542Z,26.67
2023-04-16T07:08:58.998Z,21.27
2023-04-16T07:11:26.538Z,19.65
2023-04-16T07:13:53.868Z,19.63
2023-04-16T07:16:20.587Z,23.00
2023-04-16T07:18:47.136Z,17.43
2023-04-16T07:21:13.631Z,28.30
2023-04-16T07:23:40.244Z,24.83
2023-04-16T07:26:06.727Z,19.55
2023-04-16T07:28:33.235Z,22.67
2023-04-16T07:31:00.079Z,19.27
2023-04-16T07:33:27.331Z,19.05
2023-04-16T07:35:53.880Z,22.33
2023-04-16T07:38:20.654Z,23.90
2023-04-16T07:40:47.164Z,25.30
2023-04-16T07:43:15.162Z,26.03
2023-04-16T07:45:41.890Z,20.52
2023-04-16T07:48:08.389Z,23.27
2023-04-16T07:50:34.850Z,21.88
2023-04-16T07:53:01.397Z,19.92
2023-04-16T07:55:27.923Z,25.07
2023-04-16T07:57:54.903Z,19.63
2023-04-16T08:00:21.531Z,18.42
2023-04-16T08:02:48.612Z,26.13
2023-04-16T08:05:15.492Z,24.70
2023-04-16T08:07:42.215Z,21.17
2023-04-16T08:10:09.237Z,20.15
2023-04-16T08:12:35.955Z,22.60
2023-04-16T08:15:02.494Z,19.10
2023-04-16T08:17:30.106Z,16.98
2023-04-16T08:19:56.765Z,19.97
2023-04-16T08:22:23.272Z,17.00
2023-04-16T08:24:49.735Z,15.88
2023-04-16T08:27:19.856Z,17.73
2023-04-16T08:29:47.695Z,15.48
2023-04-16T08:32:14.227Z,19.23
2023-04-16T08:34:42.029Z,16.70
2023-04-16T08:37:08.806Z,17.20
2023-04-16T08:39:35.532Z,15.98
2023-04-16T08:42:05.602Z,16.15
2023-04-16T08:44:34.905Z,12.33
2023-04-16T08:47:02.292Z,12.35
2023-04-16T08:49:29.896Z,11.77
2023-04-16T08:51:57.036Z,12.93
2023-04-16T08:54:57.094Z,12.48
2023-04-16T08:57:26.932Z,12.53
2023-04-16T08:59:55.859Z,11.80
2023-04-16T09:02:23.072Z,11.75
2023-04-16T09:04:51.283Z,12.35
2023-04-16T09:07:20.770Z,11.05
2023-04-16T09:09:49.504Z,11.20
2023-04-16T09:12:17.056Z,14.32
2023-04-16T09:14:44.235Z,10.52
2023-04-16T09:17:12.331Z,10.88
2023-04-16T09:19:38.853Z,10.45
2023-04-16T09:22:05.459Z,10.30
2023-04-16T09:24:32.351Z,10.35
2023-04-16T09:27:00.573Z,10.73
2023-04-16T09:29:36.253Z,13.68
2023-04-16T09:32:05.158Z,10.52
2023-04-16T09:34:36.173Z,8.63
2023-04-16T09:37:21.071Z,8.93
2023-04-16T09:40:00.819Z,9.65
2023-04-16T09:42:36.160Z,9.57
2023-04-16T09:45:05.499Z,9.43
2023-04-16T09:47:41.461Z,10.20
2023-04-16T09:50:11.274Z,8.60
2023-04-16T09:52:39.062Z,9.27
2023-04-16T09:55:06.327Z,10.43
2023-04-16T09:57:32.810Z,8.85
2023-04-16T10:00:04.865Z,9.30
2023-04-16T10:02:32.969Z,12.30
2023-04-16T10:05:02.365Z,9.18
2023-04-16T10:07:30.011Z,10.13
2023-04-16T10:09:56.993Z,9.93
2023-04-16T10:12:23.459Z,8.53
2023-04-16T10:14:50.393Z,9.10
2023-04-16T10:17:17.219Z,8.85
2023-04-16T10:19:44.342Z,8.43
2023-04-16T10:22:11.495Z,10.48
2023-04-16T10:24:38.976Z,9.27
2023-04-16T10:27:05.716Z,8.50
2023-04-16T10:29:33.378Z,9.88
2023-04-16T10:32:01.155Z,8.43
2023-04-16T10:34:29.022Z,10.82
2023-04-16T10:36:55.996Z,8.63
2023-04-16T10:39:24.591Z,8.68
2023-04-16T10:42:06.201Z,16.92
2023-04-16T10:44:33.330Z,8.48
2023-04-16T10:47:00.148Z,9.38
2023-04-16T10:49:27.150Z,8.80
2023-04-16T10:52:03.678Z,8.90
2023-04-16T10:54:31.284Z,8.60
2023-04-16T10:57:00.783Z,8.70
2023-04-16T10:59:32.491Z,9.07
2023-04-16T11:02:01.625Z,9.10
2023-04-16T11:04:33.170Z,9.35
2023-04-16T11:07:14.669Z,11.65
2023-04-16T11:09:48.152Z,10.20
2023-04-16T11:12:19.205Z,10.32
2023-04-16T11:14:51.154Z,9.83
2023-04-16T11:17:18.617Z,9.88
2023-04-16T11:19:45.369Z,12.10
2023-04-16T11:22:17.670Z,9.85
2023-04-16T11:24:45.614Z,11.82
2023-04-16T11:27:13.932Z,12.70
2023-04-16T11:29:40.686Z,11.77
2023-04-16T11:32:07.581Z,11.93
2023-04-16T11:34:34.381Z,11.07
2023-04-16T11:37:01.130Z,13.07
2023-04-16T11:39:27.712Z,15.87
2023-04-16T11:41:55.564Z,19.05
2023-04-16T11:44:23.474Z,15.80
2023-04-16T11:46:51.496Z,18.35
2023-04-16T11:49:27.063Z,17.05
2023-04-16T11:51:53.742Z,13.53
2023-04-16T11:54:21.580Z,16.15
2023-04-16T11:56:50.864Z,22.13
2023-04-16T11:59:18.520Z,21.33
2023-04-16T12:01:52.898Z,22.98
2023-04-16T12:04:21.281Z,18.43
2023-04-16T12:07:06.836Z,18.00
2023-04-16T12:09:37.130Z,22.15
2023-04-16T12:12:06.139Z,18.30
2023-04-16T12:14:32.925Z,20.88
2023-04-16T12:17:19.747Z,21.80
2023-04-16T12:20:17.185Z,18.63
2023-04-16T12:22:49.590Z,13.43
2023-04-16T12:25:17.856Z,16.75
2023-04-16T12:27:54.039Z,17.45
2023-04-16T12:30:22.878Z,16.03
2023-04-16T12:32:51.855Z,16.15
2023-04-16T12:35:32.073Z,13.90
2023-04-16T12:37:58.922Z,16.25
2023-04-16T12:40:25.499Z,18.90
2023-04-16T12:42:52.322Z,14.10
2023-04-16T12:45:19.040Z,12.70
2023-04-16T12:47:46.202Z,15.30
2023-04-16T12:50:12.803Z,12.38
2023-04-16T12:52:39.414Z,12.63
2023-04-16T12:55:06.359Z,12.93
2023-04-16T12:57:32.991Z,10.85
2023-04-16T12:59:59.507Z,12.48
2023-04-16T13:02:26.668Z,11.02
2023-04-16T13:04:54.311Z,12.45
2023-04-16T13:07:21.302Z,12.87
2023-04-16T13:09:47.971Z,13.55
2023-04-16T13:12:14.437Z,15.38
2023-04-16T13:14:42.762Z,12.63
2023-04-16T13:17:10.649Z,13.93
2023-04-16T13:19:37.093Z,14.70
2023-04-16T13:22:03.711Z,10.27
2023-04-16T13:24:30.685Z,14.98
2023-04-16T13:26:57.219Z,13.25
2023-04-16T13:29:23.675Z,16.08
2023-04-16T13:31:50.577Z,17.70
2023-04-16T13:34:17.177Z,14.70
2023-04-16T13:36:43.614Z,11.57
2023-04-16T13:39:13.049Z,14.68
2023-04-16T13:41:40.106Z,14.57
2023-04-16T13:44:06.805Z,16.40
2023-04-16T13:46:33.922Z,14.40
2023-04-16T13:49:00.501Z,19.98
2023-04-16T13:51:27.846Z,17.65
2023-04-16T13:53:55.093Z,16.45
2023-04-16T13:56:21.778Z,17.60
2023-04-16T13:58:48.595Z,17.55
2023-04-16T14:01:15.151Z,18.58
2023-04-16T14:03:42.065Z,20.75
2023-04-16T14:06:08.711Z,21.70
2023-04-16T14:08:35.278Z,18.40
2023-04-16T14:11:02.147Z,23.75
2023-04-16T14:13:28.652Z,18.25
2023-04-16T14:15:55.676Z,24.35
2023-04-16T14:18:22.196Z,23.23
2023-04-16T14:20:48.848Z,19.03
2023-04-16T14:23:15.333Z,23.73
2023-04-16T14:25:41.874Z,18.73
2023-04-16T14:28:09.264Z,17.48
2023-04-16T14:30:35.750Z,31.20
2023-04-16T14:33:05.614Z,20.47
2023-04-16T14:35:33.671Z,26.90
2023-04-16T14:38:01.224Z,20.33
2023-04-16T14:40:27.757Z,15.23
2023-04-16T14:42:54.189Z,17.27
2023-04-16T14:45:20.996Z,23.57
2023-04-16T14:47:48.128Z,16.13
2023-04-16T14:50:15.773Z,14.57
2023-04-16T14:52:42.390Z,17.38
2023-04-16T14:55:08.997Z,17.27
2023-04-16T14:57:35.578Z,20.27
2023-04-16T15:00:02.335Z,17.73
2023-04-16T15:02:29.042Z,15.77
2023-04-16T15:04:55.598Z,18.15
2023-04-16T15:07:22.110Z,19.08
2023-04-16T15:09:48.627Z,17.90
2023-04-16T15:12:16.233Z,17.63
2023-04-16T15:14:43.919Z,18.65
2023-04-16T15:17:10.630Z,16.30
2023-04-16T15:19:37.224Z,12.52
2023-04-16T15:22:03.705Z,12.80
2023-04-16T15:24:30.327Z,17.65
2023-04-16T15:26:56.804Z,17.00
2023-04-16T15:29:23.297Z,17.13
2023-04-16T15:31:49.783Z,15.70
2023-04-16T15:34:16.281Z,15.27
2023-04-16T15:36:42.880Z,16.90
2023-04-16T15:39:09.911Z,17.05
2023-04-16T15:41:50.176Z,19.05
2023-04-16T15:44:23.888Z,11.32
2023-04-16T15:46:50.547Z,16.43
2023-04-16T15:49:17.083Z,14.57
2023-04-16T15:51:43.560Z,13.70
2023-04-16T15:54:10.067Z,10.43
2023-04-16T15:56:36.561Z,16.00
2023-04-16T15:59:03.817Z,15.13
2023-04-16T16:01:31.122Z,12.85
2023-04-16T16:03:57.780Z,18.38
2023-04-16T16:06:24.664Z,15.73
2023-04-16T16:08:51.277Z,14.95
2023-04-16T16:11:18.026Z,17.27
2023-04-16T16:13:44.614Z,16.48
2023-04-16T16:16:11.372Z,16.95
2023-04-16T16:18:37.966Z,15.77
2023-04-16T16:21:04.438Z,16.17
2023-04-16T16:23:31.303Z,12.97
2023-04-16T16:25:57.761Z,15.50
2023-04-16T16:28:25.564Z,16.00
2023-04-16T16:30:54.615Z,17.50
2023-04-16T16:33:21.394Z,14.10
2023-04-16T16:35:47.838Z,15.80
2023-04-16T16:38:14.394Z,18.27
2023-04-16T16:40:40.862Z,17.25
2023-04-16T16:43:07.875Z,18.80
2023-04-16T16:45:34.434Z,14.82
2023-04-16T16:48:01.136Z,18.23
2023-04-16T16:50:27.738Z,14.50
2023-04-16T16:52:54.166Z,17.60
2023-04-16T16:55:21.000Z,17.33
2023-04-16T16:57:47.473Z,15.55
2023-04-16T17:00:16.164Z,18.80
2023-04-16T17:02:43.354Z,16.70
2023-04-16T17:05:10.180Z,20.13
2023-04-16T17:07:36.880Z,20.35
2023-04-16T17:10:06.130Z,18.70
2023-04-16T17:12:33.252Z,17.43
2023-04-16T17:14:59.736Z,21.73
2023-04-16T17:17:27.857Z,18.92
2023-04-16T17:19:54.453Z,16.60
2023-04-16T17:22:21.582Z,18.80
2023-04-16T17:24:48.128Z,19.90
2023-04-16T17:27:14.847Z,14.93
2023-04-16T17:29:41.336Z,19.35
2023-04-16T17:32:07.892Z,23.48
2023-04-16T17:34:34.737Z,23.50
2023-04-16T17:37:01.232Z,21.37
2023-04-16T17:39:27.662Z,30.33
2023-04-16T17:41:58.328Z,21.80
2023-04-16T17:44:25.754Z,20.85
2023-04-16T17:46:52.219Z,26.65
2023-04-16T17:49:18.790Z,27.43
2023-04-16T17:51:45.602Z,24.13
2023-04-16T17:54:12.171Z,16.77
2023-04-16T17:56:38.862Z,23.30
2023-04-16T17:59:05.498Z,20.88
2023-04-16T18:01:32.020Z,19.53
2023-04-16T18:03:58.647Z,18.92
2023-04-16T18:06:26.397Z,24.80
2023-04-16T18:08:52.905Z,21.88
2023-04-16T18:11:19.399Z,21.80
2023-04-16T18:13:46.383Z,22.97
2023-04-16T18:16:16.869Z,19.52
2023-04-16T18:18:44.363Z,19.60
2023-04-16T18:21:11.109Z,26.00
2023-04-16T18:23:37.786Z,17.70
2023-04-16T18:26:04.464Z,21.57
2023-04-16T18:28:30.990Z,21.25
2023-04-16T18:30:59.179Z,20.25
2023-04-16T18:33:52.428Z,22.60
2023-04-16T18:36:12.221Z,18.95
2023-04-16T18:38:49.484Z,17.63
2023-04-16T18:41:24.053Z,18.40
2023-04-16T18:43:50.823Z,20.77
2023-04-16T18:46:17.629Z,20.33
2023-04-16T18:48:45.198Z,19.90
2023-04-16T18:51:12.839Z,17.43
2023-04-16T18:53:42.421Z,16.80
2023-04-16T18:56:09.554Z,19.83
2023-04-16T18:58:36.671Z,24.60
2023-04-16T19:01:03.757Z,22.95
2023-04-16T19:03:30.997Z,21.60
2023-04-16T19:05:57.676Z,27.52
2023-04-16T19:08:24.236Z,26.63
2023-04-16T19:10:50.825Z,22.48
2023-04-16T19:13:17.369Z,24.92
2023-04-16T19:15:44.357Z,29.17
2023-04-16T19:18:10.892Z,26.00
2023-04-16T19:20:37.862Z,25.48
2023-04-16T19:23:05.764Z,28.65
2023-04-16T19:25:32.647Z,24.98
2023-04-16T19:27:59.413Z,28.97
2023-04-16T19:30:26.415Z,25.27
2023-04-16T19:32:55.126Z,30.67
2023-04-16T19:35:22.249Z,29.83
2023-04-16T19:37:51.245Z,31.45
2023-04-16T19:40:17.857Z,28.93
2023-04-16T19:42:45.437Z,32.53
2023-04-16T19:45:12.194Z,31.25
2023-04-16T19:47:38.729Z,30.98
2023-04-16T19:50:05.875Z,28.85
2023-04-16T19:52:37.452Z,29.03
2023-04-16T19:55:05.102Z,28.17
2023-04-16T19:57:31.629Z,25.85
2023-04-16T19:59:58.101Z,24.95
2023-04-16T20:02:24.734Z,28.92
2023-04-16T20:04:52.906Z,31.20
2023-04-16T20:07:19.916Z,33.83
2023-04-16T20:09:46.495Z,30.33
2023-04-16T20:12:12.973Z,31.17
2023-04-16T20:14:39.451Z,27.48
2023-04-16T20:17:10.040Z,28.97
2023-04-16T20:19:40.053Z,29.55
2023-04-16T20:22:06.695Z,29.85
2023-04-16T20:24:33.263Z,29.40
2023-04-16T20:26:59.756Z,30.42
2023-04-16T20:29:26.220Z,28.13
2023-04-16T20:31:52.679Z,28.40
2023-04-16T20:34:19.173Z,25.08
2023-04-16T20:36:45.824Z,29.45
2023-04-16T20:39:12.664Z,30.20
2023-04-16T20:41:43.971Z,27.33
2023-04-16T20:44:18.010Z,28.95
2023-04-16T20:46:49.489Z,30.88
2023-04-16T20:49:17.546Z,27.75
2023-04-16T20:51:44.131Z,29.15
2023-04-16T20:54:10.795Z,31.17
2023-04-16T20:56:37.302Z,31.15
2023-04-16T20:59:03.793Z,26.73
2023-04-16T21:01:30.774Z,27.30
2023-04-16T21:03:57.557Z,30.83
2023-04-16T21:06:24.196Z,29.57
2023-04-16T21:08:50.689Z,27.73
2023-04-16T21:11:17.182Z,32.80
2023-04-16T21:13:43.665Z,29.80
2023-04-16T21:16:12.329Z,32.30
2023-04-16T21:18:38.921Z,29.43
2023-04-16T21:21:05.515Z,26.83
2023-04-16T21:23:31.964Z,32.83
2023-04-16T21:25:58.454Z,31.90
2023-04-16T21:28:25.044Z,31.63
2023-04-16T21:30:52.405Z,36.07
2023-04-16T21:33:18.894Z,31.75
2023-04-16T21:35:50.965Z,30.70
2023-04-16T21:38:17.509Z,32.63
2023-04-16T21:40:45.912Z,28.27
2023-04-16T21:43:12.417Z,30.97
2023-04-16T21:45:39.755Z,31.08
2023-04-16T21:48:06.678Z,27.30
2023-04-16T21:50:33.271Z,31.65
2023-04-16T21:52:59.838Z,28.75
2023-04-16T21:55:26.330Z,29.03
2023-04-16T21:57:52.793Z,32.13
2023-04-16T22:00:19.524Z,30.70
2023-04-16T22:02:46.240Z,28.92
2023-04-16T22:05:12.889Z,31.50
2023-04-16T22:07:39.394Z,30.90
2023-04-16T22:10:06.929Z,24.05
2023-04-16T22:12:33.394Z,25.10
2023-04-16T22:15:02.753Z,29.33
2023-04-16T22:17:30.100Z,24.00
2023-04-16T22:19:57.332Z,33.00
2023-04-16T22:22:23.806Z,28.35
2023-04-16T22:24:50.357Z,32.90
2023-04-16T22:27:16.888Z,24.95
2023-04-16T22:29:43.440Z,26.10
2023-04-16T22:32:09.963Z,27.07
2023-04-16T22:34:36.617Z,25.35
2023-04-16T22:37:03.137Z,27.40
2023-04-16T22:39:30.922Z,24.65
2023-04-16T22:41:57.465Z,27.38
2023-04-16T22:44:23.933Z,26.23
2023-04-16T22:46:50.512Z,28.98
2023-04-16T22:49:17.052Z,28.75
2023-04-16T22:51:43.566Z,28.40
2023-04-16T22:54:13.267Z,25.38
2023-04-16T22:56:40.806Z,32.80
2023-04-16T22:59:07.935Z,30.20
2023-04-16T23:01:34.756Z,29.52
2023-04-16T23:04:01.309Z,31.60
2023-04-16T23:06:27.840Z,29.88
2023-04-16T23:08:54.324Z,31.07
2023-04-16T23:11:20.863Z,32.90
2023-04-16T23:13:47.328Z,31.50
2023-04-16T23:16:13.952Z,34.42
2023-04-16T23:18:40.526Z,35.80
2023-04-16T23:21:06.963Z,31.03
2023-04-16T23:23:33.398Z,31.85
2023-04-16T23:26:02.472Z,31.98
2023-04-16T23:28:29.100Z,25.48
2023-04-16T23:30:55.677Z,36.63
2023-04-16T23:33:22.481Z,30.83
2023-04-16T23:35:49.017Z,31.92
2023-04-16T23:38:15.621Z,31.40
2023-04-16T23:40:42.167Z,32.78
2023-04-16T23:43:08.652Z,32.08
2023-04-16T23:45:35.279Z,35.30
2023-04-16T23:48:01.825Z,31.25
2023-04-16T23:50:28.386Z,33.45
2023-04-16T23:52:54.884Z,31.73
2023-04-16T23:55:21.514Z,32.17
2023-04-16T23:57:47.966Z,35.53
